sensor_id;sensor_type;location;lat;lon;timestamp;pressure;altitude;pressure_sealevel;temperature;humidity
36254;BME280;22291;52.250;21.228;2024-01-15T00:01:50;98131.94;;;0.15;100.00
36254;BME280;22291;52.250;21.228;2024-01-15T00:04:16;98128.47;;;0.15;100.00
36254;BME280;22291;52.250;21.228;2024-01-15T00:06:42;98121.83;;;0.15;100.00
36254;BME280;22291;52.250;21.228;2024-01-15T00:09:10;98114.66;;;0.15;100.00
36254;BME280;22291;52.250;21.228;2024-01-15T00:11:36;98111.45;;;0.16;100.00
36254;BME280;22291;52.250;21.228;2024-01-15T00:14:02;98102.14;;;0.16;100.00
36254;BME280;22291;52.250;21.228;2024-01-15T00:16:29;98101.59;;;0.16;100.00
36254;BME280;22291;52.250;21.228;2024-01-15T00:18:55;98097.87;;;0.17;100.00
36254;BME280;22291;52.250;21.228;2024-01-15T00:21:21;98103.67;;;0.20;100.00
36254;BME280;22291;52.250;21.228;2024-01-15T00:23:47;98096.77;;;0.18;100.00
36254;BME280;22291;52.250;21.228;2024-01-15T00:26:13;98091.70;;;0.20;100.00
36254;BME280;22291;52.250;21.228;2024-01-15T00:28:39;98091.70;;;0.20;100.00
36254;BME280;22291;52.250;21.228;2024-01-15T00:31:07;98081.33;;;0.21;100.00
36254;BME280;22291;52.250;21.228;2024-01-15T00:33:33;98070.92;;;0.22;100.00
36254;BME280;22291;52.250;21.228;2024-01-15T00:35:59;98078.35;;;0.22;100.00
36254;BME280;22291;52.250;21.228;2024-01-15T00:38:25;98071.48;;;0.21;100.00
36254;BME280;22291;52.250;21.228;2024-01-15T00:40:51;98070.92;;;0.22;100.00
36254;BME280;22291;52.250;21.228;2024-01-15T00:43:18;98063.50;;;0.21;100.00
36254;BME280;22291;52.250;21.228;2024-01-15T00:45:45;98058.67;;;0.23;100.00
36254;BME280;22291;52.250;21.228;2024-01-15T00:48:16;98048.33;;;0.22;100.00
36254;BME280;22291;52.250;21.228;2024-01-15T00:50:42;98043.78;;;0.22;100.00
36254;BME280;22291;52.250;21.228;2024-01-15T00:53:08;98048.03;;;0.23;100.00
36254;BME280;22291;52.250;21.228;2024-01-15T00:55:35;98047.25;;;0.23;100.00
36254;BME280;22291;52.250;21.228;2024-01-15T00:58:05;98038.73;;;0.23;100.00
36254;BME280;22291;52.250;21.228;2024-01-15T01:00:31;98040.90;;;0.21;100.00
36254;BME280;22291;52.250;21.228;2024-01-15T01:02:57;98035.03;;;0.22;100.00
36254;BME280;22291;52.250;21.228;2024-01-15T01:05:25;98026.27;;;0.21;100.00
36254;BME280;22291;52.250;21.228;2024-01-15T01:07:51;98015.38;;;0.20;100.00
36254;BME280;22291;52.250;21.228;2024-01-15T01:10:17;98021.25;;;0.20;100.00
36254;BME280;22291;52.250;21.228;2024-01-15T01:12:45;98011.69;;;0.18;100.00
36254;BME280;22291;52.250;21.228;2024-01-15T01:15:11;98005.33;;;0.17;100.00
36254;BME280;22291;52.250;21.228;2024-01-15T01:17:38;98013.56;;;0.18;100.00
36254;BME280;22291;52.250;21.228;2024-01-15T01:20:05;97999.53;;;0.15;100.00
36254;BME280;22291;52.250;21.228;2024-01-15T01:22:36;98006.17;;;0.15;100.00
36254;BME280;22291;52.250;21.228;2024-01-15T01:25:05;98002.55;;;0.11;100.00
36254;BME280;22291;52.250;21.228;2024-01-15T01:27:32;98003.62;;;0.10;100.00
36254;BME280;22291;52.250;21.228;2024-01-15T01:30:01;97991.17;;;0.08;100.00
36254;BME280;22291;52.250;21.228;2024-01-15T01:32:31;97993.56;;;0.07;100.00
36254;BME280;22291;52.250;21.228;2024-01-15T01:34:59;97987.73;;;0.07;100.00
36254;BME280;22291;52.250;21.228;2024-01-15T01:37:26;97990.13;;;0.06;100.00
36254;BME280;22291;52.250;21.228;2024-01-15T01:39:54;97978.43;;;0.07;100.00
36254;BME280;22291;52.250;21.228;2024-01-15T01:42:20;97985.37;;;0.06;100.00
36254;BME280;22291;52.250;21.228;2024-01-15T01:44:46;97984.33;;;0.04;100.00
36254;BME280;22291;52.250;21.228;2024-01-15T01:47:14;97983.55;;;0.04;100.00
36254;BME280;22291;52.250;21.228;2024-01-15T01:49:43;97981.19;;;0.02;100.00
36254;BME280;22291;52.250;21.228;2024-01-15T01:52:14;97975.39;;;0.00;100.00
36254;BME280;22291;52.250;21.228;2024-01-15T01:54:42;97970.59;;;-0.01;100.00
36254;BME280;22291;52.250;21.228;2024-01-15T01:57:10;97971.92;;;-0.01;100.00
36254;BME280;22291;52.250;21.228;2024-01-15T01:59:39;97969.03;;;-0.02;100.00
36254;BME280;22291;52.250;21.228;2024-01-15T02:02:06;97965.05;;;-0.02;100.00
36254;BME280;22291;52.250;21.228;2024-01-15T02:04:36;97954.94;;;-0.02;100.00
36254;BME280;22291;52.250;21.228;2024-01-15T02:07:05;97956.81;;;-0.03;100.00
36254;BME280;22291;52.250;21.228;2024-01-15T02:09:32;97958.92;;;-0.02;100.00
36254;BME280;22291;52.250;21.228;2024-01-15T02:12:00;97957.07;;;-0.02;100.00
36254;BME280;22291;52.250;21.228;2024-01-15T02:14:26;97956.52;;;-0.01;100.00
36254;BME280;22291;52.250;21.228;2024-01-15T02:16:52;97949.33;;;-0.01;100.00
36254;BME280;22291;52.250;21.228;2024-01-15T02:19:18;97945.89;;;-0.01;100.00
36254;BME280;22291;52.250;21.228;2024-01-15T02:21:46;97941.13;;;-0.02;100.00
36254;BME280;22291;52.250;21.228;2024-01-15T02:24:15;97940.83;;;0.00;100.00
36254;BME280;22291;52.250;21.228;2024-01-15T02:26:43;97940.83;;;0.00;100.00
36254;BME280;22291;52.250;21.228;2024-01-15T02:29:11;97933.93;;;-0.01;100.00
36254;BME280;22291;52.250;21.228;2024-01-15T02:31:40;97937.85;;;0.02;100.00
36254;BME280;22291;52.250;21.228;2024-01-15T02:34:07;97927.58;;;-0.03;100.00
36254;BME280;22291;52.250;21.228;2024-01-15T02:36:33;97928.55;;;0.02;100.00
36254;BME280;22291;52.250;21.228;2024-01-15T02:39:00;97918.17;;;0.03;100.00
36254;BME280;22291;52.250;21.228;2024-01-15T02:41:26;97920.28;;;0.03;100.00
36254;BME280;22291;52.250;21.228;2024-01-15T02:43:52;97912.30;;;0.03;100.00
36254;BME280;22291;52.250;21.228;2024-01-15T02:46:18;97921.87;;;0.04;100.00
36254;BME280;22291;52.250;21.228;2024-01-15T02:48:46;97909.91;;;0.04;100.00
36254;BME280;22291;52.250;21.228;2024-01-15T02:51:12;97911.78;;;0.04;100.00
36254;BME280;22291;52.250;21.228;2024-01-15T02:53:39;97905.36;;;0.05;100.00
36254;BME280;22291;52.250;21.228;2024-01-15T02:56:07;97902.70;;;0.05;100.00
36254;BME280;22291;52.250;21.228;2024-01-15T02:58:34;97899.53;;;0.05;100.00
36254;BME280;22291;52.250;21.228;2024-01-15T03:01:00;97896.55;;;0.07;100.00
36254;BME280;22291;52.250;21.228;2024-01-15T03:03:26;97881.70;;;0.06;100.00
36254;BME280;22291;52.250;21.228;2024-01-15T03:05:52;97873.72;;;0.06;100.00
36254;BME280;22291;52.250;21.228;2024-01-15T03:08:18;97872.95;;;0.05;100.00
36254;BME280;22291;52.250;21.228;2024-01-15T03:10:45;97868.41;;;0.06;100.00
36254;BME280;22291;52.250;21.228;2024-01-15T03:13:11;97874.50;;;0.06;100.00
36254;BME280;22291;52.250;21.228;2024-01-15T03:15:37;97867.08;;;0.06;100.00
36254;BME280;22291;52.250;21.228;2024-01-15T03:18:05;97867.63;;;0.05;100.00
36254;BME280;22291;52.250;21.228;2024-01-15T03:20:34;97856.19;;;0.05;100.00
36254;BME280;22291;52.250;21.228;2024-01-15T03:23:00;97851.13;;;0.06;100.00
36254;BME280;22291;52.250;21.228;2024-01-15T03:25:26;97841.34;;;0.04;100.00
36254;BME280;22291;52.250;21.228;2024-01-15T03:27:52;97842.67;;;0.04;100.00
36254;BME280;22291;52.250;21.228;2024-01-15T03:30:18;97841.64;;;0.02;100.00
36254;BME280;22291;52.250;21.228;2024-01-15T03:32:44;97838.98;;;0.02;100.00
36254;BME280;22291;52.250;21.228;2024-01-15T03:35:15;97838.73;;;0.01;100.00
36254;BME280;22291;52.250;21.228;2024-01-15T03:37:41;97828.09;;;0.01;100.00
36254;BME280;22291;52.250;21.228;2024-01-15T03:40:10;97828.39;;;-0.01;100.00
36254;BME280;22291;52.250;21.228;2024-01-15T03:42:38;97827.62;;;-0.01;100.00
36254;BME280;22291;52.250;21.228;2024-01-15T03:45:07;97831.13;;;-0.03;100.00
36254;BME280;22291;52.250;21.228;2024-01-15T03:47:33;97822.41;;;-0.06;100.00
36254;BME280;22291;52.250;21.228;2024-01-15T03:49:59;97828.58;;;-0.08;100.00
36254;BME280;22291;52.250;21.228;2024-01-15T03:52:25;97823.30;;;-0.11;100.00
36254;BME280;22291;52.250;21.228;2024-01-15T03:54:51;97820.16;;;-0.13;100.00
36254;BME280;22291;52.250;21.228;2024-01-15T03:57:17;97822.05;;;-0.13;100.00
36254;BME280;22291;52.250;21.228;2024-01-15T03:59:44;97819.13;;;-0.14;100.00
36254;BME280;22291;52.250;21.228;2024-01-15T04:02:11;97804.03;;;-0.16;100.00
36254;BME280;22291;52.250;21.228;2024-01-15T04:04:43;97806.14;;;-0.16;100.00
36254;BME280;22291;52.250;21.228;2024-01-15T04:07:11;97795.52;;;-0.16;100.00
36254;BME280;22291;52.250;21.228;2024-01-15T04:09:39;97801.92;;;-0.17;100.00
36254;BME280;22291;52.250;21.228;2024-01-15T04:12:08;97799.27;;;-0.17;100.00
36254;BME280;22291;52.250;21.228;2024-01-15T04:14:34;97794.48;;;-0.17;100.00
36254;BME280;22291;52.250;21.228;2024-01-15T04:17:00;97795.58;;;-0.18;100.00
36254;BME280;22291;52.250;21.228;2024-01-15T04:19:27;97782.04;;;-0.20;100.00
36254;BME280;22291;52.250;21.228;2024-01-15T04:21:53;97771.67;;;-0.18;100.00
36254;BME280;22291;52.250;21.228;2024-01-15T04:24:19;97760.78;;;-0.20;100.00
36254;BME280;22291;52.250;21.228;2024-01-15T04:26:45;97764.52;;;-0.21;100.00
36254;BME280;22291;52.250;21.228;2024-01-15T04:29:11;97761.86;;;-0.21;100.00
36254;BME280;22291;52.250;21.228;2024-01-15T04:31:38;97755.77;;;-0.21;100.00
36254;BME280;22291;52.250;21.228;2024-01-15T04:34:04;97747.24;;;-0.21;100.00
36254;BME280;22291;52.250;21.228;2024-01-15T04:36:31;97740.60;;;-0.21;100.00
36254;BME280;22291;52.250;21.228;2024-01-15T04:38:57;97744.36;;;-0.22;100.00
36254;BME280;22291;52.250;21.228;2024-01-15T04:41:23;97737.17;;;-0.21;100.00
36254;BME280;22291;52.250;21.228;2024-01-15T04:43:49;97731.08;;;-0.22;100.00
36254;BME280;22291;52.250;21.228;2024-01-15T04:46:16;97731.08;;;-0.22;100.00
36254;BME280;22291;52.250;21.228;2024-01-15T04:48:42;97728.97;;;-0.22;100.00
36254;BME280;22291;52.250;21.228;2024-01-15T04:51:10;97724.98;;;-0.22;100.00
36254;BME280;22291;52.250;21.228;2024-01-15T04:53:38;97725.21;;;-0.21;100.00
36254;BME280;22291;52.250;21.228;2024-01-15T04:56:06;97723.11;;;-0.22;100.00
36254;BME280;22291;52.250;21.228;2024-01-15T04:58:32;97725.21;;;-0.21;100.00
36254;BME280;22291;52.250;21.228;2024-01-15T05:00:58;97726.31;;;-0.22;100.00
36254;BME280;22291;52.250;21.228;2024-01-15T05:03:26;97718.87;;;-0.23;100.00
36254;BME280;22291;52.250;21.228;2024-01-15T05:05:53;97700.27;;;-0.23;100.00
36254;BME280;22291;52.250;21.228;2024-01-15T05:08:19;97715.44;;;-0.23;100.00
36254;BME280;22291;52.250;21.228;2024-01-15T05:10:49;97710.90;;;-0.23;100.00
36254;BME280;22291;52.250;21.228;2024-01-15T05:13:17;97698.47;;;-0.25;100.00
36254;BME280;22291;52.250;21.228;2024-01-15T05:15:43;97698.16;;;-0.23;100.00
36254;BME280;22291;52.250;21.228;2024-01-15T05:18:10;97700.53;;;-0.22;100.00
36254;BME280;22291;52.250;21.228;2024-01-15T05:20:36;97698.09;;;-0.21;100.00
36254;BME280;22291;52.250;21.228;2024-01-15T05:23:02;97702.08;;;-0.21;100.00
36254;BME280;22291;52.250;21.228;2024-01-15T05:25:30;97694.36;;;-0.20;100.00
36254;BME280;22291;52.250;21.228;2024-01-15T05:27:58;97700.70;;;-0.18;100.00
36254;BME280;22291;52.250;21.228;2024-01-15T05:30:26;97698.83;;;-0.17;100.00
36254;BME280;22291;52.250;21.228;2024-01-15T05:32:53;97704.69;;;-0.18;100.00
36254;BME280;22291;52.250;21.228;2024-01-15T05:35:21;97697.75;;;-0.16;100.00
36254;BME280;22291;52.250;21.228;2024-01-15T05:37:47;97694.84;;;-0.17;100.00
36254;BME280;22291;52.250;21.228;2024-01-15T05:40:14;97699.55;;;-0.14;100.00
36254;BME280;22291;52.250;21.228;2024-01-15T05:42:42;97698.53;;;-0.16;100.00
36254;BME280;22291;52.250;21.228;2024-01-15T05:45:09;97693.98;;;-0.15;100.00
36254;BME280;22291;52.250;21.228;2024-01-15T05:47:35;97704.09;;;-0.15;100.00
36254;BME280;22291;52.250;21.228;2024-01-15T05:50:04;97700.33;;;-0.14;100.00
36254;BME280;22291;52.250;21.228;2024-01-15T05:52:30;97706.45;;;-0.13;100.00
36254;BME280;22291;52.250;21.228;2024-01-15T05:55:00;97694.50;;;-0.13;100.00
36254;BME280;22291;52.250;21.228;2024-01-15T05:57:27;97693.16;;;-0.13;100.00
36254;BME280;22291;52.250;21.228;2024-01-15T05:59:55;97695.27;;;-0.13;100.00
36254;BME280;22291;52.250;21.228;2024-01-15T06:02:21;97690.51;;;-0.13;100.00
36254;BME280;22291;52.250;21.228;2024-01-15T06:04:47;97693.39;;;-0.12;100.00
36254;BME280;22291;52.250;21.228;2024-01-15T06:07:14;97690.73;;;-0.12;100.00
36254;BME280;22291;52.250;21.228;2024-01-15T06:09:40;97697.38;;;-0.12;100.00
36254;BME280;22291;52.250;21.228;2024-01-15T06:12:08;97683.31;;;-0.13;100.00
36254;BME280;22291;52.250;21.228;2024-01-15T06:14:34;97682.58;;;-0.16;100.00
36254;BME280;22291;52.250;21.228;2024-01-15T06:17:00;97684.89;;;-0.12;100.00
36254;BME280;22291;52.250;21.228;2024-01-15T06:19:26;97677.45;;;-0.12;100.00
36254;BME280;22291;52.250;21.228;2024-01-15T06:21:53;97681.91;;;-0.10;100.00
36254;BME280;22291;52.250;21.228;2024-01-15T06:24:19;97675.82;;;-0.11;100.00
36254;BME280;22291;52.250;21.228;2024-01-15T06:26:49;97678.73;;;-0.10;100.00
36254;BME280;22291;52.250;21.228;2024-01-15T06:29:15;97673.46;;;-0.12;100.00
36254;BME280;22291;52.250;21.228;2024-01-15T06:31:41;97680.36;;;-0.11;100.00
36254;BME280;22291;52.250;21.228;2024-01-15T06:34:07;97667.30;;;-0.10;100.00
36254;BME280;22291;52.250;21.228;2024-01-15T06:36:34;97663.31;;;-0.10;100.00
36254;BME280;22291;52.250;21.228;2024-01-15T06:39:00;97655.34;;;-0.10;100.00
36254;BME280;22291;52.250;21.228;2024-01-15T06:41:28;97645.52;;;-0.10;100.00
36254;BME280;22291;52.250;21.228;2024-01-15T06:43:54;97647.06;;;-0.09;100.00
36254;BME280;22291;52.250;21.228;2024-01-15T06:46:23;97648.39;;;-0.09;100.00
36254;BME280;22291;52.250;21.228;2024-01-15T06:48:51;97660.61;;;-0.08;100.00
36254;BME280;22291;52.250;21.228;2024-01-15T06:51:17;97664.89;;;-0.09;100.00
36254;BME280;22291;52.250;21.228;2024-01-15T06:53:43;97660.35;;;-0.09;100.00
36254;BME280;22291;52.250;21.228;2024-01-15T06:56:11;97655.34;;;-0.10;100.00
36254;BME280;22291;52.250;21.228;2024-01-15T06:58:37;97660.13;;;-0.10;100.00
36254;BME280;22291;52.250;21.228;2024-01-15T07:01:05;97652.38;;;-0.09;100.00
36254;BME280;22291;52.250;21.228;2024-01-15T07:03:32;97649.72;;;-0.09;100.00
36254;BME280;22291;52.250;21.228;2024-01-15T07:05:58;97644.19;;;-0.10;100.00
36254;BME280;22291;52.250;21.228;2024-01-15T07:08:24;97651.05;;;-0.09;100.00
36254;BME280;22291;52.250;21.228;2024-01-15T07:10:50;97652.88;;;-0.07;100.00
36254;BME280;22291;52.250;21.228;2024-01-15T07:13:18;97654.22;;;-0.07;100.00
36254;BME280;22291;52.250;21.228;2024-01-15T07:15:44;97648.39;;;-0.09;100.00
36254;BME280;22291;52.250;21.228;2024-01-15T07:18:11;97653.36;;;-0.05;100.00
36254;BME280;22291;52.250;21.228;2024-01-15T07:20:37;97660.00;;;-0.05;100.00
36254;BME280;22291;52.250;21.228;2024-01-15T07:23:05;97658.12;;;-0.04;100.00
36254;BME280;22291;52.250;21.228;2024-01-15T07:25:32;97647.57;;;-0.07;100.00
36254;BME280;22291;52.250;21.228;2024-01-15T07:27:58;97661.63;;;-0.06;100.00
36254;BME280;22291;52.250;21.228;2024-01-15T07:30:25;97647.31;;;-0.08;100.00
36254;BME280;22291;52.250;21.228;2024-01-15T07:32:51;97644.95;;;-0.09;100.00
36254;BME280;22291;52.250;21.228;2024-01-15T07:35:19;97660.35;;;-0.09;100.00
36254;BME280;22291;52.250;21.228;2024-01-15T07:37:45;97662.78;;;-0.10;100.00
36254;BME280;22291;52.250;21.228;2024-01-15T07:40:11;97658.55;;;-0.11;100.00
36254;BME280;22291;52.250;21.228;2024-01-15T07:42:39;97664.11;;;-0.10;100.00
36254;BME280;22291;52.250;21.228;2024-01-15T07:45:07;97679.80;;;-0.11;100.00
36254;BME280;22291;52.250;21.228;2024-01-15T07:47:34;97661.28;;;-0.13;100.00
36254;BME280;22291;52.250;21.228;2024-01-15T07:50:00;97652.80;;;-0.15;100.00
36254;BME280;22291;52.250;21.228;2024-01-15T07:52:31;97671.48;;;-0.18;100.00
36254;BME280;22291;52.250;21.228;2024-01-15T07:54:58;97657.94;;;-0.19;100.00
36254;BME280;22291;52.250;21.228;2024-01-15T07:57:30;97663.03;;;-0.20;100.00
36254;BME280;22291;52.250;21.228;2024-01-15T07:59:56;97662.17;;;-0.18;100.00
36254;BME280;22291;52.250;21.228;2024-01-15T08:02:22;97657.94;;;-0.19;100.00
36254;BME280;22291;52.250;21.228;2024-01-15T08:04:49;97666.16;;;-0.18;100.00
36254;BME280;22291;52.250;21.228;2024-01-15T08:07:16;97658.75;;;-0.18;100.00
36254;BME280;22291;52.250;21.228;2024-01-15T08:09:45;97660.85;;;-0.18;100.00
36254;BME280;22291;52.250;21.228;2024-01-15T08:12:13;97657.12;;;-0.17;100.00
36254;BME280;22291;52.250;21.228;2024-01-15T08:14:41;97644.83;;;-0.15;100.00
36254;BME280;22291;52.250;21.228;2024-01-15T08:17:07;97646.16;;;-0.15;100.00
36254;BME280;22291;52.250;21.228;2024-01-15T08:19:34;97634.71;;;-0.13;100.00
36254;BME280;22291;52.250;21.228;2024-01-15T08:22:02;97637.59;;;-0.12;100.00
36254;BME280;22291;52.250;21.228;2024-01-15T08:24:28;97642.30;;;-0.09;100.00
36254;BME280;22291;52.250;21.228;2024-01-15T08:26:55;97657.47;;;-0.10;100.00
36254;BME280;22291;52.250;21.228;2024-01-15T08:29:23;97645.21;;;-0.08;100.00
36254;BME280;22291;52.250;21.228;2024-01-15T08:31:51;97653.70;;;-0.09;100.00
36254;BME280;22291;52.250;21.228;2024-01-15T08:34:17;97661.37;;;-0.07;100.00
36254;BME280;22291;52.250;21.228;2024-01-15T08:36:43;97652.63;;;-0.08;100.00
36254;BME280;22291;52.250;21.228;2024-01-15T08:39:09;97656.80;;;-0.04;100.00
36254;BME280;22291;52.250;21.228;2024-01-15T08:41:38;97669.01;;;-0.03;100.00
36254;BME280;22291;52.250;21.228;2024-01-15T08:44:06;97647.67;;;-0.01;100.00
36254;BME280;22291;52.250;21.228;2024-01-15T08:46:33;97658.72;;;0.04;100.00
36254;BME280;22291;52.250;21.228;2024-01-15T08:48:59;97664.47;;;0.09;100.00
36254;BME280;22291;52.250;21.228;2024-01-15T08:51:25;97644.63;;;0.15;100.00
36254;BME280;22291;52.250;21.228;2024-01-15T08:53:53;97663.36;;;0.21;100.00
36254;BME280;22291;52.250;21.228;2024-01-15T08:56:19;97666.53;;;0.32;100.00
36254;BME280;22291;52.250;21.228;2024-01-15T08:58:46;97658.53;;;0.43;100.00
36254;BME280;22291;52.250;21.228;2024-01-15T09:01:12;97666.55;;;0.52;100.00
36254;BME280;22291;52.250;21.228;2024-01-15T09:03:40;97665.47;;;0.53;100.00
36254;BME280;22291;52.250;21.228;2024-01-15T09:06:11;97661.48;;;0.53;100.00
36254;BME280;22291;52.250;21.228;2024-01-15T09:08:37;97669.46;;;0.53;100.00
36254;BME280;22291;52.250;21.228;2024-01-15T09:11:05;97667.10;;;0.51;100.00
36254;BME280;22291;52.250;21.228;2024-01-15T09:13:32;97667.63;;;0.51;100.00
36254;BME280;22291;52.250;21.228;2024-01-15T09:16:00;97681.48;;;0.50;100.00
36254;BME280;22291;52.250;21.228;2024-01-15T09:18:26;97681.95;;;0.52;100.00
36254;BME280;22291;52.250;21.228;2024-01-15T09:20:54;97678.22;;;0.53;100.00
36254;BME280;22291;52.250;21.228;2024-01-15T09:23:23;97678.05;;;0.50;100.00
36254;BME280;22291;52.250;21.228;2024-01-15T09:25:49;97664.50;;;0.49;100.00
36254;BME280;22291;52.250;21.228;2024-01-15T09:28:15;97673.20;;;0.52;100.00
36254;BME280;22291;52.250;21.228;2024-01-15T09:30:41;97683.12;;;0.49;100.00
36254;BME280;22291;52.250;21.228;2024-01-15T09:33:07;97674.95;;;0.57;100.00
36254;BME280;22291;52.250;21.228;2024-01-15T09:35:35;97669.02;;;0.60;100.00
36254;BME280;22291;52.250;21.228;2024-01-15T09:38:04;97675.20;;;0.66;100.00
36254;BME280;22291;52.250;21.228;2024-01-15T09:40:33;97667.94;;;0.69;100.00
36254;BME280;22291;52.250;21.228;2024-01-15T09:43:03;97659.59;;;0.73;100.00
36254;BME280;22291;52.250;21.228;2024-01-15T09:45:32;97660.86;;;0.85;100.00
36254;BME280;22291;52.250;21.228;2024-01-15T09:47:59;97657.88;;;1.06;100.00
36254;BME280;22291;52.250;21.228;2024-01-15T09:50:27;97657.56;;;1.08;100.00
36254;BME280;22291;52.250;21.228;2024-01-15T09:52:55;97666.64;;;1.07;100.00
36254;BME280;22291;52.250;21.228;2024-01-15T09:55:26;97659.52;;;1.05;100.00
36254;BME280;22291;52.250;21.228;2024-01-15T09:57:54;97657.48;;;1.10;100.00
36254;BME280;22291;52.250;21.228;2024-01-15T10:00:23;97674.48;;;1.21;100.00
36254;BME280;22291;52.250;21.228;2024-01-15T10:02:50;97647.48;;;1.25;100.00
36254;BME280;22291;52.250;21.228;2024-01-15T10:05:18;97653.68;;;1.23;97.12
36254;BME280;22291;52.250;21.228;2024-01-15T10:07:48;97639.71;;;1.17;97.79
36254;BME280;22291;52.250;21.228;2024-01-15T10:10:16;97644.97;;;1.11;95.73
36254;BME280;22291;52.250;21.228;2024-01-15T10:12:42;97644.62;;;1.04;96.34
36254;BME280;22291;52.250;21.228;2024-01-15T10:15:11;97641.80;;;1.00;97.62
36254;BME280;22291;52.250;21.228;2024-01-15T10:17:40;97640.09;;;0.96;96.51
36254;BME280;22291;52.250;21.228;2024-01-15T10:20:10;97643.58;;;0.93;97.58
36254;BME280;22291;52.250;21.228;2024-01-15T10:22:43;97634.82;;;0.93;97.09
36254;BME280;22291;52.250;21.228;2024-01-15T10:25:14;97639.59;;;0.93;97.63
36254;BME280;22291;52.250;21.228;2024-01-15T10:27:43;97642.09;;;0.90;97.20
36254;BME280;22291;52.250;21.228;2024-01-15T10:30:13;97639.38;;;0.92;96.77
36254;BME280;22291;52.250;21.228;2024-01-15T10:32:40;97650.73;;;0.96;97.68
36254;BME280;22291;52.250;21.228;2024-01-15T10:35:08;97653.39;;;0.96;95.67
36254;BME280;22291;52.250;21.228;2024-01-15T10:37:37;97649.93;;;0.95;96.71
36254;BME280;22291;52.250;21.228;2024-01-15T10:40:06;97652.90;;;0.93;96.46
36254;BME280;22291;52.250;21.228;2024-01-15T10:42:33;97649.91;;;0.86;94.51
36254;BME280;22291;52.250;21.228;2024-01-15T10:45:05;97650.88;;;0.90;95.58
36254;BME280;22291;52.250;21.228;2024-01-15T10:47:36;97654.06;;;0.90;95.65
36254;BME280;22291;52.250;21.228;2024-01-15T10:50:07;97662.00;;;0.92;96.43
36254;BME280;22291;52.250;21.228;2024-01-15T10:52:36;97662.00;;;0.92;96.43
36254;BME280;22291;52.250;21.228;2024-01-15T10:55:11;97651.64;;;0.82;95.56
36254;BME280;22291;52.250;21.228;2024-01-15T10:57:40;97633.48;;;0.84;95.94
36254;BME280;22291;52.250;21.228;2024-01-15T11:00:10;97640.05;;;0.87;95.75
36254;BME280;22291;52.250;21.228;2024-01-15T11:02:39;97648.13;;;0.93;95.99
36254;BME280;22291;52.250;21.228;2024-01-15T11:05:09;97650.18;;;0.96;95.43
36254;BME280;22291;52.250;21.228;2024-01-15T11:07:37;97643.99;;;0.98;95.20
36254;BME280;22291;52.250;21.228;2024-01-15T11:16:05;97649.11;;;1.06;94.09
36254;BME280;22291;52.250;21.228;2024-01-15T11:18:42;97641.80;;;1.00;93.08
36254;BME280;22291;52.250;21.228;2024-01-15T11:21:28;97637.89;;;0.98;93.89
36254;BME280;22291;52.250;21.228;2024-01-15T11:24:00;97649.41;;;0.96;93.94
36254;BME280;22291;52.250;21.228;2024-01-15T11:26:31;97641.72;;;0.94;92.96
36254;BME280;22291;52.250;21.228;2024-01-15T11:29:09;97632.16;;;0.93;93.59
36254;BME280;22291;52.250;21.228;2024-01-15T11:34:17;97647.91;;;0.92;93.37
36254;BME280;22291;52.250;21.228;2024-01-15T11:42:01;97631.23;;;0.89;92.60
36254;BME280;22291;52.250;21.228;2024-01-15T11:44:31;97624.08;;;0.87;92.79
36254;BME280;22291;52.250;21.228;2024-01-15T11:47:08;97624.88;;;0.87;92.89
36254;BME280;22291;52.250;21.228;2024-01-15T11:50:02;97620.58;;;0.89;93.70
36254;BME280;22291;52.250;21.228;2024-01-15T11:52:36;97617.30;;;0.92;93.84
36254;BME280;22291;52.250;21.228;2024-01-15T11:57:57;97604.83;;;0.90;93.47
36254;BME280;22291;52.250;21.228;2024-01-15T12:00:29;97604.30;;;0.90;93.04
36254;BME280;22291;52.250;21.228;2024-01-15T12:02:59;97608.66;;;0.86;93.07
36254;BME280;22291;52.250;21.228;2024-01-15T12:05:29;97603.89;;;0.86;93.78
36254;BME280;22291;52.250;21.228;2024-01-15T12:07:55;97618.13;;;0.81;93.54
36254;BME280;22291;52.250;21.228;2024-01-15T12:10:26;97602.46;;;0.80;93.51
36254;BME280;22291;52.250;21.228;2024-01-15T12:13:05;97617.76;;;0.85;94.52
36254;BME280;22291;52.250;21.228;2024-01-15T12:15:42;97618.30;;;0.93;94.66
36254;BME280;22291;52.250;21.228;2024-01-15T12:18:15;97614.30;;;0.93;94.03
36254;BME280;22291;52.250;21.228;2024-01-15T12:20:47;97601.64;;;0.90;94.37
36254;BME280;22291;52.250;21.228;2024-01-15T12:23:16;97601.45;;;0.87;94.19
36254;BME280;22291;52.250;21.228;2024-01-15T12:25:44;97595.60;;;0.87;93.50
36254;BME280;22291;52.250;21.228;2024-01-15T12:28:11;97622.36;;;0.82;93.45
36254;BME280;22291;52.250;21.228;2024-01-15T12:30:39;97614.52;;;0.77;94.31
36254;BME280;22291;52.250;21.228;2024-01-15T12:33:07;97608.95;;;0.76;94.57
36254;BME280;22291;52.250;21.228;2024-01-15T12:35:37;97612.31;;;0.70;94.78
36254;BME280;22291;52.250;21.228;2024-01-15T12:38:06;97597.83;;;0.65;94.94
36254;BME280;22291;52.250;21.228;2024-01-15T12:40:34;97597.36;;;0.63;95.31
36254;BME280;22291;52.250;21.228;2024-01-15T12:43:01;97591.48;;;0.64;95.87
36254;BME280;22291;52.250;21.228;2024-01-15T12:45:31;97607.50;;;0.61;95.91
36254;BME280;22291;52.250;21.228;2024-01-15T12:47:59;97596.22;;;0.55;95.73
36254;BME280;22291;52.250;21.228;2024-01-15T12:50:27;97596.67;;;0.49;95.57
36254;BME280;22291;52.250;21.228;2024-01-15T12:52:54;97607.70;;;0.45;96.41
36254;BME280;22291;52.250;21.228;2024-01-15T12:55:22;97600.22;;;0.35;97.66
36254;BME280;22291;52.250;21.228;2024-01-15T12:57:50;97612.16;;;0.27;98.33
36254;BME280;22291;52.250;21.228;2024-01-15T13:00:21;97600.93;;;0.18;98.83
36254;BME280;22291;52.250;21.228;2024-01-15T13:02:49;97603.97;;;0.14;99.33
36254;BME280;22291;52.250;21.228;2024-01-15T13:05:19;97595.22;;;0.14;100.00
36254;BME280;22291;52.250;21.228;2024-01-15T13:07:47;97602.81;;;0.18;100.00